createdAt,value
2023-10-06T00:01:04.637Z,100324.38
2023-10-06T00:03:31.511Z,100327.50
2023-10-06T00:05:58.331Z,100334.56
2023-10-06T00:08:34.075Z,100334.31
2023-10-06T00:11:21.147Z,100335.34
2023-10-06T00:14:01.836Z,100332.50
2023-10-06T00:16:40.368Z,100330.41
2023-10-06T00:19:28.632Z,100323.84
2023-10-06T00:22:05.721Z,100323.84
2023-10-06T00:24:32.749Z,100329.63
2023-10-06T00:27:00.594Z,100328.84
2023-10-06T00:29:30.217Z,100324.13
2023-10-06T00:32:17.313Z,100324.91
2023-10-06T00:34:44.194Z,100330.69
2023-10-06T00:37:13.019Z,100323.56
2023-10-06T00:39:39.749Z,100330.41
2023-10-06T00:42:07.895Z,100333.03
2023-10-06T00:44:34.597Z,100324.09
2023-10-06T00:47:07.270Z,100322.00
2023-10-06T00:49:34.629Z,100319.91
2023-10-06T00:52:02.311Z,100323.56
2023-10-06T00:54:29.161Z,100333.31
2023-10-06T00:56:59.315Z,100332.50
2023-10-06T00:59:26.225Z,100330.16
2023-10-06T01:01:54.083Z,100327.81
2023-10-06T01:04:26.264Z,100325.97
2023-10-06T01:06:55.837Z,100330.94
2023-10-06T01:09:31.550Z,100322.25
2023-10-06T01:11:58.586Z,100326.19
2023-10-06T01:14:28.039Z,100325.94
2023-10-06T01:17:11.073Z,100328.84
2023-10-06T01:19:38.000Z,100325.94
2023-10-06T01:22:23.340Z,100324.09
2023-10-06T01:24:50.975Z,100325.41
2023-10-06T01:27:17.848Z,100320.94
2023-10-06T01:29:46.352Z,100324.88
2023-10-06T01:32:16.855Z,100314.66
2023-10-06T01:34:45.599Z,100323.34
2023-10-06T01:37:12.393Z,100324.16
2023-10-06T01:39:40.942Z,100318.09
2023-10-06T01:42:12.507Z,100323.84
2023-10-06T01:44:39.133Z,100317.81
2023-10-06T01:47:06.102Z,100312.59
2023-10-06T01:49:37.386Z,100306.00
2023-10-06T01:52:10.346Z,100311.00
2023-10-06T01:54:37.857Z,100307.59
2023-10-06T01:57:05.543Z,100309.94
2023-10-06T01:59:32.314Z,100317.53
2023-10-06T02:02:02.660Z,100310.97
2023-10-06T02:04:50.888Z,100315.44
2023-10-06T02:07:20.782Z,100312.28
2023-10-06T02:09:47.524Z,100312.56
2023-10-06T02:12:14.364Z,100315.94
2023-10-06T02:14:41.227Z,100311.22
2023-10-06T02:17:10.270Z,100313.84
2023-10-06T02:19:38.621Z,100304.63
2023-10-06T02:22:07.533Z,100301.78
2023-10-06T02:24:34.720Z,100298.66
2023-10-06T02:27:02.690Z,100299.69
2023-10-06T02:29:31.056Z,100298.41
2023-10-06T02:32:08.337Z,100305.75
2023-10-06T02:34:37.187Z,100305.00
2023-10-06T02:37:10.097Z,100303.47
2023-10-06T02:39:39.813Z,100309.75
2023-10-06T02:42:09.943Z,100308.44
2023-10-06T02:44:40.225Z,100311.84
2023-10-06T02:47:11.052Z,100303.97
2023-10-06T02:49:41.994Z,100303.69
2023-10-06T02:52:22.718Z,100296.34
2023-10-06T02:55:04.947Z,100296.88
2023-10-06T02:57:40.138Z,100299.50
2023-10-06T03:00:26.130Z,100303.19
2023-10-06T03:02:58.795Z,100296.88
2023-10-06T03:05:39.682Z,100297.66
2023-10-06T03:08:11.080Z,100306.59
2023-10-06T03:10:46.746Z,100307.91
2023-10-06T03:13:17.588Z,100304.00
2023-10-06T03:15:47.902Z,100311.63
2023-10-06T03:18:17.878Z,100311.09
2023-10-06T03:20:48.790Z,100306.38
2023-10-06T03:23:32.520Z,100307.41
2023-10-06T03:25:59.283Z,100308.19
2023-10-06T03:28:34.234Z,100308.19
2023-10-06T03:31:26.744Z,100306.88
2023-10-06T03:33:55.882Z,100306.88
2023-10-06T03:36:38.948Z,100310.81
2023-10-06T03:39:11.772Z,100312.66
2023-10-06T03:41:42.375Z,100311.59
2023-10-06T03:44:12.596Z,100324.22
2023-10-06T03:46:40.072Z,100317.13
2023-10-06T03:49:09.481Z,100315.56
2023-10-06T03:51:40.342Z,100321.06
2023-10-06T03:54:07.432Z,100324.22
2023-10-06T03:56:34.126Z,100311.34
2023-10-06T03:59:01.545Z,100310.81
2023-10-06T04:01:32.775Z,100321.31
2023-10-06T04:03:59.935Z,100322.91
2023-10-06T04:06:36.346Z,100318.72
2023-10-06T04:09:03.974Z,100326.31
2023-10-06T04:11:35.369Z,100316.09
2023-10-06T04:14:02.449Z,100318.97
2023-10-06T04:16:29.435Z,100318.19
2023-10-06T04:18:56.147Z,100318.44
2023-10-06T04:21:25.431Z,100320.00
2023-10-06T04:23:52.264Z,100312.41
2023-10-06T04:26:19.452Z,100311.63
2023-10-06T04:28:48.144Z,100312.94
2023-10-06T04:31:16.860Z,100315.31
2023-10-06T04:33:44.990Z,100320.28
2023-10-06T04:36:21.819Z,100321.06
2023-10-06T04:38:49.008Z,100326.84
2023-10-06T04:41:16.085Z,100323.72
2023-10-06T04:43:46.475Z,100325.81
2023-10-06T04:46:14.782Z,100330.81
2023-10-06T04:48:41.797Z,100326.84
2023-10-06T04:51:13.417Z,100334.72
2023-10-06T04:53:40.607Z,100327.88
2023-10-06T04:56:09.681Z,100336.31
2023-10-06T04:58:43.705Z,100330.53
2023-10-06T05:01:12.781Z,100331.06
2023-10-06T05:03:45.040Z,100331.88
2023-10-06T05:06:21.885Z,100338.72
2023-10-06T05:08:50.056Z,100336.34
2023-10-06T05:11:18.821Z,100344.50
2023-10-06T05:13:49.323Z,100341.09
2023-10-06T05:16:16.610Z,100337.19
2023-10-06T05:18:46.149Z,100338.25
2023-10-06T05:21:13.159Z,100333.53
2023-10-06T05:23:40.047Z,100334.06
2023-10-06T05:26:11.799Z,100326.19
2023-10-06T05:28:38.823Z,100331.19
2023-10-06T05:31:08.986Z,100330.66
2023-10-06T05:33:35.863Z,100336.16
2023-10-06T05:36:13.265Z,100338.50
2023-10-06T05:38:40.465Z,100345.31
2023-10-06T05:41:12.667Z,100347.94
2023-10-06T05:43:40.380Z,100346.34
2023-10-06T05:46:07.262Z,100350.56
2023-10-06T05:48:35.548Z,100347.16
2023-10-06T05:51:11.709Z,100350.81
2023-10-06T05:53:44.400Z,100353.16
2023-10-06T05:56:11.681Z,100357.34
2023-10-06T05:58:39.222Z,100354.72
2023-10-06T06:01:12.696Z,100357.34
2023-10-06T06:03:46.105Z,100347.66
2023-10-06T06:06:17.113Z,100353.41
2023-10-06T06:08:49.448Z,100359.47
2023-10-06T06:11:17.203Z,100354.22
2023-10-06T06:13:44.369Z,100356.06
2023-10-06T06:16:11.434Z,100351.59
2023-10-06T06:18:43.707Z,100359.50
2023-10-06T06:21:10.636Z,100365.78
2023-10-06T06:23:37.345Z,100363.69
2023-10-06T06:26:04.155Z,100365.28
2023-10-06T06:28:30.832Z,100376.28
2023-10-06T06:30:57.620Z,100367.09
2023-10-06T06:33:24.281Z,100367.63
2023-10-06T06:35:51.409Z,100381.00
2023-10-06T06:38:20.182Z,100365.25
2023-10-06T06:40:47.431Z,100365.25
2023-10-06T06:43:14.217Z,100365.50
2023-10-06T06:45:44.353Z,100368.91
2023-10-06T06:48:14.938Z,100383.09
2023-10-06T06:50:45.905Z,100371.25
2023-10-06T06:53:13.358Z,100358.41
2023-10-06T06:55:43.051Z,100356.28
2023-10-06T06:58:12.637Z,100364.16
2023-10-06T07:00:43.181Z,100367.06
2023-10-06T07:03:12.448Z,100364.16
2023-10-06T07:05:40.717Z,100369.94
2023-10-06T07:08:08.452Z,100368.63
2023-10-06T07:10:40.212Z,100366.50
2023-10-06T07:13:07.183Z,100366.22
2023-10-06T07:15:35.065Z,100357.28
2023-10-06T07:18:03.217Z,100348.34
2023-10-06T07:20:31.313Z,100346.75
2023-10-06T07:23:01.886Z,100349.63
2023-10-06T07:25:29.524Z,100354.06
2023-10-06T07:27:58.528Z,100359.28
2023-10-06T07:30:29.800Z,100358.75
2023-10-06T07:32:57.068Z,100365.00
2023-10-06T07:35:32.243Z,100354.72
2023-10-06T07:37:59.787Z,100360.97
2023-10-06T07:40:28.870Z,100354.91
2023-10-06T07:42:56.510Z,100346.47
2023-10-06T07:45:25.170Z,100349.81
2023-10-06T07:47:55.424Z,100350.56
2023-10-06T07:50:22.260Z,100342.91
2023-10-06T07:52:49.428Z,100353.34
2023-10-06T07:55:17.976Z,100353.09
2023-10-06T07:57:49.203Z,100357.00
2023-10-06T08:00:40.145Z,100357.50
2023-10-06T08:03:06.986Z,100355.88
2023-10-06T08:05:34.646Z,100353.19
2023-10-06T08:08:02.411Z,100354.69
2023-10-06T08:10:33.333Z,100355.13
2023-10-06T08:13:04.551Z,100369.31
2023-10-06T08:15:34.377Z,100359.00
2023-10-06T08:18:02.286Z,100367.63
2023-10-06T08:20:31.962Z,100382.31
2023-10-06T08:23:00.248Z,100378.06
2023-10-06T08:25:27.963Z,100388.81
2023-10-06T08:27:56.639Z,100378.00
2023-10-06T08:30:24.456Z,100381.91
2023-10-06T08:32:56.103Z,100381.88
2023-10-06T08:35:24.174Z,100377.88
2023-10-06T08:37:57.724Z,100373.72
2023-10-06T08:40:26.365Z,100359.50
2023-10-06T08:42:58.596Z,100336.94
2023-10-06T08:45:28.452Z,100316.91
2023-10-06T08:48:04.296Z,100319.94
2023-10-06T08:50:34.570Z,100338.06
2023-10-06T08:53:08.202Z,100327.78
2023-10-06T08:55:39.410Z,100325.03
2023-10-06T08:58:09.509Z,100331.94
2023-10-06T09:00:38.461Z,100324.47
2023-10-06T09:03:10.673Z,100335.34
2023-10-06T09:05:43.617Z,100323.97
2023-10-06T09:08:16.882Z,100312.06
2023-10-06T09:10:50.276Z,100321.75
2023-10-06T09:13:19.468Z,100317.63
2023-10-06T09:16:09.478Z,100314.72
2023-10-06T09:18:40.169Z,100296.31
2023-10-06T09:21:13.657Z,100286.00
2023-10-06T09:23:43.729Z,100288.97
2023-10-06T09:26:15.345Z,100273.81
2023-10-06T09:28:52.022Z,100267.03
2023-10-06T09:31:35.045Z,100255.56
2023-10-06T09:34:01.901Z,100244.94
2023-10-06T09:36:43.629Z,100242.16
2023-10-06T09:39:17.268Z,100235.28
2023-10-06T09:41:46.090Z,100225.13
2023-10-06T09:44:14.387Z,100229.75
2023-10-06T09:46:45.198Z,100236.00
2023-10-06T09:49:19.624Z,100237.78
2023-10-06T09:51:48.127Z,100238.50
2023-10-06T09:54:15.986Z,100242.16
2023-10-06T09:56:43.395Z,100239.81
2023-10-06T09:59:14.766Z,100240.28
2023-10-06T10:01:47.086Z,100244.50
2023-10-06T10:04:15.606Z,100251.09
2023-10-06T10:06:44.991Z,100260.97
2023-10-06T10:09:17.337Z,100259.19
2023-10-06T10:12:18.096Z,100259.56
2023-10-06T10:15:22.817Z,100258.06
2023-10-06T10:17:55.111Z,100248.09
2023-10-06T10:20:26.827Z,100250.19
2023-10-06T10:22:57.832Z,100242.56
2023-10-06T10:25:26.048Z,100239.50
2023-10-06T10:28:14.946Z,100231.75
2023-10-06T10:31:02.508Z,100238.75
2023-10-06T10:33:34.880Z,100234.31
2023-10-06T10:36:13.950Z,100230.97
2023-10-06T10:38:43.060Z,100209.47
2023-10-06T10:41:13.706Z,100205.69
2023-10-06T10:43:46.592Z,100197.75
2023-10-06T10:46:14.088Z,100192.91
2023-10-06T10:48:48.911Z,100179.25
2023-10-06T10:51:16.320Z,100178.44
2023-10-06T10:53:46.717Z,100171.59
2023-10-06T10:56:27.406Z,100168.81
2023-10-06T10:58:55.483Z,100163.72
2023-10-06T11:01:45.404Z,100166.59
2023-10-06T11:04:30.330Z,100167.66
2023-10-06T11:06:59.370Z,100157.06
2023-10-06T11:09:27.904Z,100159.03
2023-10-06T11:12:20.184Z,100153.63
2023-10-06T11:14:53.251Z,100152.19
2023-10-06T11:17:24.856Z,100151.38
2023-10-06T11:20:16.956Z,100141.00
2023-10-06T11:22:55.377Z,100133.91
2023-10-06T11:25:29.706Z,100135.63
2023-10-06T11:28:10.471Z,100134.13
2023-10-06T11:30:39.930Z,100135.06
2023-10-06T11:33:09.902Z,100136.94
2023-10-06T11:35:38.259Z,100140.13
2023-10-06T11:38:16.859Z,100125.06
2023-10-06T11:40:43.734Z,100111.19
2023-10-06T11:43:18.921Z,100109.53
2023-10-06T11:45:45.970Z,100100.66
2023-10-06T11:48:36.126Z,100093.06
2023-10-06T11:51:08.130Z,100086.97
2023-10-06T11:53:40.297Z,100081.44
2023-10-06T11:56:16.567Z,100073.53
2023-10-06T11:58:45.382Z,100077.38
2023-10-06T12:01:35.241Z,100082.50
2023-10-06T12:04:02.889Z,100079.78
2023-10-06T12:06:43.749Z,100081.47
2023-10-06T12:09:16.501Z,100079.78
2023-10-06T12:11:43.343Z,100083.31
2023-10-06T12:14:11.853Z,100078.50
2023-10-06T12:16:38.968Z,100079.47
2023-10-06T12:19:07.031Z,100088.59
2023-10-06T12:21:34.183Z,100086.44
2023-10-06T12:24:00.895Z,100092.22
2023-10-06T12:26:27.596Z,100093.31
2023-10-06T12:28:55.990Z,100092.97
2023-10-06T12:31:23.636Z,100080.41
2023-10-06T12:33:56.683Z,100093.53
2023-10-06T12:36:24.462Z,100085.97
2023-10-06T12:38:51.171Z,100086.88
2023-10-06T12:41:19.091Z,100084.44
2023-10-06T12:43:48.753Z,100081.47
2023-10-06T12:46:15.896Z,100078.72
2023-10-06T12:48:42.561Z,100073.72
2023-10-06T12:51:12.968Z,100066.91
2023-10-06T12:53:40.910Z,100064.72
2023-10-06T12:56:08.417Z,100063.59
2023-10-06T12:58:35.463Z,100062.06
2023-10-06T13:01:02.274Z,100069.25
2023-10-06T13:03:30.673Z,100065.38
2023-10-06T13:05:57.598Z,100053.94
2023-10-06T13:08:26.135Z,100059.81
2023-10-06T13:10:55.233Z,100065.63
2023-10-06T13:13:21.961Z,100049.84
2023-10-06T13:15:48.810Z,100055.50
2023-10-06T13:18:18.663Z,100044.06
2023-10-06T13:20:46.174Z,100036.09
2023-10-06T13:23:12.883Z,100023.94
2023-10-06T13:25:40.863Z,100016.44
2023-10-06T13:28:16.424Z,100013.41
2023-10-06T13:30:44.640Z,100001.69
2023-10-06T13:33:11.703Z,100004.31
2023-10-06T13:35:38.861Z,100002.97
2023-10-06T13:38:06.247Z,99981.91
2023-10-06T13:40:35.523Z,99982.63
2023-10-06T13:43:02.403Z,99994.06
2023-10-06T13:45:31.268Z,99995.13
2023-10-06T13:48:01.905Z,100001.38
2023-10-06T13:50:32.317Z,99999.63
2023-10-06T13:52:59.144Z,100005.84
2023-10-06T13:55:26.053Z,100003.25
2023-10-06T13:57:54.167Z,100003.53
2023-10-06T14:00:38.368Z,99998.50
2023-10-06T14:03:15.455Z,99986.84
2023-10-06T14:05:44.396Z,99983.13
2023-10-06T14:08:14.949Z,99982.66
2023-10-06T14:10:42.691Z,99976.16
2023-10-06T14:13:12.524Z,99975.66
2023-10-06T14:16:10.289Z,99977.38
2023-10-06T14:18:40.088Z,99962.75
2023-10-06T14:21:07.739Z,99965.75
2023-10-06T14:23:37.303Z,99958.13
2023-10-06T14:26:11.293Z,99947.97
2023-10-06T14:28:38.283Z,99947.38
2023-10-06T14:31:17.874Z,99955.31
2023-10-06T14:33:58.934Z,99940.88
2023-10-06T14:36:27.624Z,99952.25
2023-10-06T14:39:12.779Z,99954.63
2023-10-06T14:41:57.505Z,99961.31
2023-10-06T14:44:42.911Z,99952.44
2023-10-06T14:47:11.214Z,99952.59
2023-10-06T14:49:45.440Z,99950.41
2023-10-06T14:52:12.450Z,99943.25
2023-10-06T14:54:39.866Z,99942.47
2023-10-06T14:57:06.739Z,99945.44
2023-10-06T14:59:33.589Z,99935.78
2023-10-06T15:02:13.212Z,99926.56
2023-10-06T15:04:40.660Z,99918.94
2023-10-06T15:07:10.129Z,99921.28
2023-10-06T15:09:39.903Z,99920.19
2023-10-06T15:12:07.355Z,99929.84
2023-10-06T15:14:37.498Z,99926.91
2023-10-06T15:17:05.679Z,99924.94
2023-10-06T15:19:36.594Z,99908.31
2023-10-06T15:22:03.700Z,99902.75
2023-10-06T15:24:30.814Z,99893.78
2023-10-06T15:26:58.207Z,99894.84
2023-10-06T15:29:27.328Z,99900.00
2023-10-06T15:31:54.158Z,99899.78
2023-10-06T15:34:20.916Z,99897.44
2023-10-06T15:36:48.087Z,99895.75
2023-10-06T15:39:18.423Z,99900.97
2023-10-06T15:41:50.127Z,99886.06
2023-10-06T15:44:18.168Z,99891.56
2023-10-06T15:46:46.288Z,99892.38
2023-10-06T15:49:15.998Z,99891.88
2023-10-06T15:51:46.633Z,99886.25
2023-10-06T15:54:13.386Z,99883.00
2023-10-06T15:56:40.701Z,99879.41
2023-10-06T15:59:16.220Z,99873.66
2023-10-06T16:01:44.653Z,99873.50
2023-10-06T16:04:15.631Z,99870.84
2023-10-06T16:06:44.608Z,99871.28
2023-10-06T16:09:17.098Z,99870.69
2023-10-06T16:11:44.744Z,99862.28
2023-10-06T16:14:13.462Z,99871.56
2023-10-06T16:16:41.450Z,99870.31
2023-10-06T16:19:10.202Z,99872.00
2023-10-06T16:21:37.382Z,99866.94
2023-10-06T16:24:06.995Z,99861.19
2023-10-06T16:26:35.214Z,99859.47
2023-10-06T16:29:05.486Z,99853.53
2023-10-06T16:31:35.513Z,99857.25
2023-10-06T16:34:03.313Z,99858.47
2023-10-06T16:36:32.605Z,99852.56
2023-10-06T16:39:00.993Z,99855.63
2023-10-06T16:41:28.581Z,99860.63
2023-10-06T16:43:57.536Z,99862.78
2023-10-06T16:46:28.197Z,99856.25
2023-10-06T16:48:55.815Z,99856.38
2023-10-06T16:51:24.744Z,99861.47
2023-10-06T16:53:53.195Z,99865.03
2023-10-06T16:56:24.785Z,99863.00
2023-10-06T16:58:53.469Z,99864.69
2023-10-06T17:01:20.866Z,99857.84
2023-10-06T17:03:49.905Z,99862.81
2023-10-06T17:06:19.904Z,99856.28
2023-10-06T17:08:49.295Z,99860.13
2023-10-06T17:11:20.142Z,99857.16
2023-10-06T17:13:48.867Z,99852.19
2023-10-06T17:16:16.911Z,99853.38
2023-10-06T17:18:46.635Z,99855.25
2023-10-06T17:21:15.929Z,99849.97
2023-10-06T17:23:46.849Z,99855.84
2023-10-06T17:26:17.958Z,99850.09
2023-10-06T17:28:47.533Z,99850.88
2023-10-06T17:31:18.395Z,99856.31
2023-10-06T17:33:46.690Z,99842.94
2023-10-06T17:36:15.106Z,99847.63
2023-10-06T17:38:42.713Z,99836.72
2023-10-06T17:41:14.996Z,99837.31
2023-10-06T17:43:42.327Z,99840.56
2023-10-06T17:46:16.844Z,99844.09
2023-10-06T17:48:48.237Z,99847.41
2023-10-06T17:51:16.318Z,99852.78
2023-10-06T17:53:44.018Z,99848.88
2023-10-06T17:56:12.217Z,99847.75
2023-10-06T17:58:39.629Z,99851.56
2023-10-06T18:01:08.410Z,99848.88
2023-10-06T18:03:35.401Z,99847.00
2023-10-06T18:06:02.723Z,99842.34
2023-10-06T18:08:30.512Z,99840.00
2023-10-06T18:10:57.505Z,99840.59
2023-10-06T18:13:25.248Z,99842.16
2023-10-06T18:15:55.153Z,99846.75
2023-10-06T18:18:22.857Z,99839.44
2023-10-06T18:20:49.882Z,99845.38
2023-10-06T18:23:16.629Z,99835.13
2023-10-06T18:25:43.619Z,99836.22
2023-10-06T18:28:10.457Z,99834.94
2023-10-06T18:30:37.203Z,99837.41
2023-10-06T18:33:05.244Z,99844.22
2023-10-06T18:35:35.473Z,99840.03
2023-10-06T18:38:02.527Z,99835.34
2023-10-06T18:40:29.217Z,99829.00
2023-10-06T18:42:58.096Z,99832.72
2023-10-06T18:45:24.715Z,99828.94
2023-10-06T18:47:53.301Z,99831.84
2023-10-06T18:50:20.339Z,99827.66
2023-10-06T18:52:52.004Z,99828.44
2023-10-06T18:55:24.063Z,99828.75
2023-10-06T18:57:52.101Z,99824.25
2023-10-06T19:00:24.843Z,99819.28
2023-10-06T19:02:52.282Z,99818.97
2023-10-06T19:05:21.706Z,99811.38
2023-10-06T19:07:48.564Z,99813.72
2023-10-06T19:10:16.031Z,99812.94
2023-10-06T19:12:46.493Z,99807.78
2023-10-06T19:15:13.386Z,99811.00
2023-10-06T19:17:40.171Z,99798.22
2023-10-06T19:20:10.272Z,99808.28
2023-10-06T19:22:40.642Z,99795.13
2023-10-06T19:25:11.316Z,99796.09
2023-10-06T19:27:39.811Z,99803.88
2023-10-06T19:30:13.757Z,99804.75
2023-10-06T19:32:41.353Z,99800.56
2023-10-06T19:35:09.965Z,99803.81
2023-10-06T19:37:41.105Z,99803.59
2023-10-06T19:40:09.756Z,99799.78
2023-10-06T19:42:37.524Z,99797.56
2023-10-06T19:45:08.040Z,99820.00
2023-10-06T19:47:34.911Z,99808.09
2023-10-06T19:50:04.043Z,99808.88
2023-10-06T19:52:31.582Z,99816.88
2023-10-06T19:54:59.268Z,99813.94
2023-10-06T19:57:27.513Z,99816.47
2023-10-06T19:59:55.385Z,99807.81
2023-10-06T20:02:23.276Z,99801.94
2023-10-06T20:04:51.221Z,99797.06
2023-10-06T20:07:18.373Z,99808.28
2023-10-06T20:09:45.190Z,99794.16
2023-10-06T20:12:12.127Z,99800.97
2023-10-06T20:14:38.844Z,99803.41
2023-10-06T20:17:05.682Z,99804.78
2023-10-06T20:19:34.175Z,99802.63
2023-10-06T20:22:00.921Z,99803.72
2023-10-06T20:24:27.584Z,99798.16
2023-10-06T20:26:54.242Z,99803.22
2023-10-06T20:29:20.914Z,99798.75
2023-10-06T20:31:47.679Z,99798.16
2023-10-06T20:34:14.492Z,99791.31
2023-10-06T20:36:41.248Z,99800.50
2023-10-06T20:39:11.098Z,99802.63
2023-10-06T20:41:38.972Z,99800.78
2023-10-06T20:44:11.666Z,99800.78
2023-10-06T20:46:44.620Z,99800.09
2023-10-06T20:49:14.993Z,99797.66
2023-10-06T20:51:42.455Z,99792.41
2023-10-06T20:54:09.553Z,99788.50
2023-10-06T20:56:36.585Z,99790.84
2023-10-06T20:59:03.321Z,99784.81
2023-10-06T21:01:33.226Z,99787.44
2023-10-06T21:04:05.579Z,99786.16
2023-10-06T21:06:36.158Z,99783.06
2023-10-06T21:09:05.734Z,99772.31
2023-10-06T21:11:38.123Z,99780.13
2023-10-06T21:14:12.985Z,99780.91
2023-10-06T21:16:39.959Z,99782.84
2023-10-06T21:19:06.941Z,99778.16
2023-10-06T21:21:33.613Z,99783.13
2023-10-06T21:24:01.282Z,99783.53
2023-10-06T21:26:27.993Z,99776.53
2023-10-06T21:28:56.861Z,99768.69
2023-10-06T21:31:24.292Z,99763.53
2023-10-06T21:33:51.233Z,99763.63
2023-10-06T21:36:20.143Z,99761.50
2023-10-06T21:38:47.681Z,99763.13
2023-10-06T21:41:18.062Z,99758.16
2023-10-06T21:43:44.746Z,99760.00
2023-10-06T21:46:14.618Z,99757.66
2023-10-06T21:48:41.449Z,99756.31
2023-10-06T21:51:08.160Z,99757.59
2023-10-06T21:53:37.818Z,99745.41
2023-10-06T21:56:12.998Z,99756.22
2023-10-06T21:58:41.010Z,99756.81
2023-10-06T22:01:16.555Z,99755.06
2023-10-06T22:03:43.385Z,99748.91
2023-10-06T22:06:11.191Z,99758.16
2023-10-06T22:08:37.931Z,99747.84
2023-10-06T22:11:07.315Z,99743.94
2023-10-06T22:13:34.822Z,99742.06
2023-10-06T22:16:01.700Z,99744.72
2023-10-06T22:18:28.489Z,99737.03
2023-10-06T22:20:55.530Z,99740.34
2023-10-06T22:23:24.900Z,99732.63
2023-10-06T22:25:52.701Z,99727.66
2023-10-06T22:28:21.334Z,99719.34
2023-10-06T22:30:48.327Z,99717.50
2023-10-06T22:33:15.025Z,99720.72
2023-10-06T22:35:41.792Z,99716.91
2023-10-06T22:38:11.730Z,99718.34
2023-10-06T22:40:38.947Z,99704.28
2023-10-06T22:43:06.053Z,99709.91
2023-10-06T22:45:32.725Z,99710.69
2023-10-06T22:48:01.713Z,99715.66
2023-10-06T22:50:28.544Z,99713.31
2023-10-06T22:52:55.465Z,99706.69
2023-10-06T22:55:22.321Z,99698.84
2023-10-06T22:57:49.098Z,99706.19
2023-10-06T23:00:18.841Z,99697.81
2023-10-06T23:02:48.263Z,99696.75
2023-10-06T23:05:16.107Z,99692.06
2023-10-06T23:07:43.633Z,99698.72
2023-10-06T23:10:13.752Z,99698.25
2023-10-06T23:12:44.799Z,99693.44
2023-10-06T23:15:13.190Z,99695.00
2023-10-06T23:17:42.134Z,99697.03
2023-10-06T23:20:15.389Z,99698.47
2023-10-06T23:22:45.041Z,99705.13
2023-10-06T23:25:13.584Z,99690.88
2023-10-06T23:27:40.819Z,99689.47
2023-10-06T23:30:10.908Z,99696.13
2023-10-06T23:32:39.527Z,99685.28
2023-10-06T23:35:08.381Z,99690.38
2023-10-06T23:37:35.291Z,99683.25
2023-10-06T23:40:01.928Z,99681.69
2023-10-06T23:42:28.714Z,99700.44
2023-10-06T23:44:55.420Z,99693.81
2023-10-06T23:47:24.671Z,99685.91
2023-10-06T23:49:56.622Z,99693.03
2023-10-06T23:52:23.513Z,99692.53
2023-10-06T23:54:50.263Z,99682.44
2023-10-06T23:57:17.032Z,99692.50
2023-10-06T23:59:55.825Z,99689.38
